Airport Weather Around the Area


KLVN - Mpls/Airlake, Lakeville, MN, USA
Distance from station: S 5mi, 8km
Updated: Sun, 23-Apr-2017 4:10pm CDT
Clear
Clear
 Wind from S
Wind: S 5 mph , 7 km/h
Temperature: 68°F , 20°C
Dew Point: 37°F , 3°C
Humidity: 33%
Barometer: 29.95 inHg , 1014.2 hPa
Clouds: Clear
Visibility: 10 miles , 16 km
2017/04/23 21:10 KLVN 232110Z AUTO 17004KT 10SM CLR 20/03 A2995 RMK AO2
KMSP - MSP International, Minneapolis, MN, USA
Distance from station: N 13mi, 20km
Updated: Sun, 23-Apr-2017 3:53pm CDT
Overcast
Overcast
 Wind from ENE
Wind: ENE 5 mph , 7 km/h
Temperature: 68°F , 20°C
Dew Point: 39°F , 4°C
Humidity: 35%
Barometer: 29.96 inHg , 1014.6 hPa
Clouds: Overcast
Visibility: 10 miles , 16 km
Cloud details: Mostly Cloudy 21000 ft
Overcast 30000 ft
2017/04/23 20:53 KMSP 232053Z 06004KT 10SM BKN210 OVC300 20/04 A2996 RMK AO2 SLP144 T02000039 56027
 
KSGS - South St Paul/Fleming Field, So. St. Paul, MN, USA
Distance from station: NE 14mi, 22km
Updated: Sun, 23-Apr-2017 4:34pm CDT
Clear
Clear
 Wind from SSW
Wind: SSW 8 mph , 13 km/h
Temperature: 68°F , 20°C
Dew Point: 34°F , 1°C
Humidity: 28%
Barometer: 29.93 inHg , 1013.5 hPa
Clouds: Clear
Visibility: 10 miles , 16 km
2017/04/23 21:34 KSGS 232134Z AUTO 21007KT 10SM CLR 20/01 A2993 RMK AO2 T02040014
KFCM - Mpls/Flying Cloud, Eden Prairie, MN, USA
Distance from station: NW 15mi, 24km
Updated: Sun, 23-Apr-2017 3:53pm CDT
Clear
Clear
 Wind from ESE
Wind: ESE 3 mph , 6 km/h
Temperature: 70°F , 21°C
Dew Point: 39°F , 4°C
Humidity: 33%
Barometer: 29.94 inHg , 1013.9 hPa
Clouds: Clear
Visibility: 9 miles , 14 km
2017/04/23 20:53 KFCM 232053Z 11003KT 9SM CLR 21/04 A2994 RMK AO2 SLP141 T02060039 56027
 
KSTP - St. Paul Downtown, St. Paul, MN, USA
Distance from station: NNE 18mi, 29km
Updated: Sun, 23-Apr-2017 3:53pm CDT
Clear
Clear
 Wind from ENE
Wind: ENE 3 mph , 6 km/h
Temperature: 66°F , 19°C
Dew Point: 41°F , 5°C
Humidity: 40%
Barometer: 29.97 inHg , 1014.9 hPa
Clouds: Clear
Visibility: 10 miles , 16 km
2017/04/23 20:53 KSTP 232053Z 07003KT 10SM CLR 19/05 A2997 RMK AO2 SLP148 T01940050 56025
KSYN - Stanton, Minnesota, USA
Distance from station: SE 18mi, 29km
Updated: Sun, 23-Apr-2017 4:34pm CDT
Clear
Clear
 Wind from SW
Wind: SW 12 mph , 19 km/h, Gust: 24 mph , 39 km/h
Temperature: 72°F , 22°C
Dew Point: 28°F , -2°C
Humidity: 20%
Barometer: 29.93 inHg , 1013.5 hPa
Clouds: Clear
Visibility: 10 miles , 16 km
2017/04/23 21:34 KSYN 232134Z AUTO 23010G21KT 10SM CLR 22/M02 A2993 RMK AO2 T02211019
 
KMIC - Mlps/Crystal, MN, USA
Distance from station: NNW 26mi, 42km
Updated: Sun, 23-Apr-2017 3:53pm CDT
Clear
Clear
 Wind from calm
Wind: Calm
Temperature: 66°F , 19°C
Dew Point: 37°F , 3°C
Humidity: 35%
Barometer: 29.95 inHg , 1014.2 hPa
Clouds: Clear
Visibility: 10 miles , 16 km
2017/04/23 20:53 KMIC 232053Z 00000KT 10SM CLR 19/03 A2995 RMK AO2 SLP143 T01940033 57027
KFBL - Faribault Municipal, MN, USA
Distance from station: S 27mi, 43km
Updated: Sun, 23-Apr-2017 4:34pm CDT
Clear
Clear
 Wind from SSW
Wind: SSW 14 mph , 22 km/h, Gust: 21 mph , 33 km/h
Temperature: 72°F , 22°C
Dew Point: 28°F , -2°C
Humidity: 20%
Barometer: 29.94 inHg , 1013.9 hPa
Clouds: Clear
Visibility: 10 miles , 16 km
2017/04/23 21:34 KFBL 232134Z AUTO 20012G18KT 10SM CLR 22/M02 A2994 RMK AO2
 
K21D - Lake Elmo, MN, USA
Distance from station: NE 27mi, 44km
Updated: Sun, 23-Apr-2017 4:32pm CDT
Clear
Clear
 Wind from calm
Wind: Calm
Temperature: 64°F , 18°C
Dew Point: 41°F , 5°C
Humidity: 43%
Barometer: 29.96 inHg , 1014.6 hPa
Clouds: Clear
Visibility: 10 miles , 16 km
2017/04/23 21:32 K21D 232132Z AUTO 00000KT 10SM CLR 18/05 A2996 RMK AO2
KANE - Anoka Co./Blaine, MN, USA
Distance from station: 0 30mi, 48km
Updated: Sun, 23-Apr-2017 3:45pm CDT
Overcast
Overcast
 Wind from NE
Wind: NE 5 mph , 7 km/h
Temperature: 64°F , 18°C
Dew Point: 45°F , 7°C
Humidity: 49%
Barometer: 29.98 inHg , 1015.2 hPa
Clouds: Overcast
Visibility: 10 miles , 16 km
Cloud details: Overcast 25000 ft
2017/04/23 20:45 KANE 232045Z 05004KT 10SM OVC250 18/07 A2998
 
KRGK - Red Wing, MN, USA
Distance from station: ESE 37mi, 60km
Updated: Sun, 23-Apr-2017 4:35pm CDT
Clear
Clear
 Wind from calm
Wind: Calm
Temperature: 70°F , 21°C
Dew Point: 28°F , -2°C
Humidity: 21%
Barometer: 29.94 inHg , 1013.9 hPa
Clouds: Clear
Visibility: 10 miles , 16 km
2017/04/23 21:35 KRGK 232135Z AUTO 00000KT 10SM CLR 21/M02 A2994 RMK AO2